Terminal Aerodrome Forecast
Issued by NWS Spokane, WA

Home | Current Version | Previous Version | Text Only | Print | Product List | Glossary On
Versions: 1 2 3 4 5 6 7 8 9 10 11 12 13 14 15 16 17 18 19 20 21 22 23 24 25
000
FTUS46 KOTX 281121
TAFGEG
TAF
KGEG 281121Z 2812/2912 19009KT P6SM FEW100 SCT250
     FM281800 24013G19KT P6SM FEW070 SCT200
     FM290300 22008KT P6SM FEW150=

USA.gov is the U.S. government's official web portal to all federal, state and local government web resources and services.